createdAt,value
2022-08-07T00:00:19.946Z,63.23
2022-08-07T00:01:43.687Z,63.77
2022-08-07T00:02:41.101Z,61.60
2022-08-07T00:03:19.915Z,64.25
2022-08-07T00:04:24.486Z,61.89
2022-08-07T00:05:18.945Z,61.81
2022-08-07T00:06:29.289Z,62.20
2022-08-07T00:07:19.950Z,63.25
2022-08-07T00:08:18.866Z,60.58
2022-08-07T00:09:21.227Z,63.10
2022-08-07T00:10:26.482Z,62.10
2022-08-07T00:11:20.832Z,63.69
2022-08-07T00:12:19.817Z,61.75
2022-08-07T00:13:25.635Z,63.08
2022-08-07T00:14:19.841Z,61.72
2022-08-07T00:15:19.793Z,62.69
2022-08-07T00:16:21.612Z,64.53
2022-08-07T00:17:19.778Z,62.93
2022-08-07T00:18:20.271Z,61.92
2022-08-07T00:19:21.491Z,64.72
2022-08-07T00:20:29.900Z,62.25
2022-08-07T00:21:57.508Z,60.93
2022-08-07T00:22:24.414Z,62.42
2022-08-07T00:23:21.174Z,60.97
2022-08-07T00:24:18.728Z,62.96
2022-08-07T00:25:18.708Z,61.78
2022-08-07T00:26:59.234Z,63.00
2022-08-07T00:27:19.688Z,62.96
2022-08-07T00:28:18.671Z,64.83
2022-08-07T00:29:18.658Z,62.87
2022-08-07T00:30:26.848Z,60.00
2022-08-07T00:31:19.636Z,57.80
2022-08-07T00:32:18.641Z,61.22
2022-08-07T00:33:19.619Z,62.55
2022-08-07T00:34:18.630Z,63.51
2022-08-07T00:35:18.649Z,62.36
2022-08-07T00:36:18.592Z,62.94
2022-08-07T00:37:18.584Z,61.74
2022-08-07T00:38:31.585Z,61.29
2022-08-07T00:39:20.655Z,62.10
2022-08-07T00:40:39.272Z,59.13
2022-08-07T00:41:19.561Z,60.97
2022-08-07T00:42:18.536Z,65.73
2022-08-07T00:44:01.046Z,60.82
2022-08-07T00:44:19.518Z,61.71
2022-08-07T00:45:18.505Z,60.80
2022-08-07T00:46:18.539Z,60.86
2022-08-07T00:48:07.821Z,63.82
2022-08-07T00:48:19.569Z,60.11
2022-08-07T00:50:16.917Z,63.14
2022-08-07T00:50:50.628Z,59.94
2022-08-07T00:51:19.489Z,62.31
2022-08-07T00:52:20.127Z,61.92
2022-08-07T00:53:18.416Z,61.46
2022-08-07T00:54:19.845Z,59.99
2022-08-07T00:55:25.561Z,60.79
2022-08-07T00:56:19.400Z,61.97
2022-08-07T00:57:18.400Z,61.23
2022-08-07T00:58:18.380Z,61.99
2022-08-07T00:59:20.035Z,60.88
2022-08-07T01:00:19.359Z,62.72
2022-08-07T01:01:18.492Z,58.47
2022-08-07T01:02:28.618Z,62.46
2022-08-07T01:03:19.329Z,61.11
2022-08-07T01:04:21.710Z,62.82
2022-08-07T01:05:19.840Z,61.09
2022-08-07T01:06:18.299Z,61.47
2022-08-07T01:07:18.305Z,60.04
2022-08-07T01:08:18.280Z,62.78
2022-08-07T01:10:03.921Z,62.76
2022-08-07T01:10:19.257Z,62.96
2022-08-07T01:12:10.298Z,56.71
2022-08-07T01:12:29.663Z,58.65
2022-08-07T01:13:19.226Z,64.94
2022-08-07T01:14:21.475Z,61.91
2022-08-07T01:15:19.210Z,62.98
2022-08-07T01:16:29.981Z,61.74
2022-08-07T01:17:19.217Z,59.68
2022-08-07T01:18:18.184Z,60.82
2022-08-07T01:19:19.657Z,61.65
2022-08-07T01:20:18.169Z,62.94
2022-08-07T01:21:25.807Z,60.09
2022-08-07T01:22:22.891Z,59.53
2022-08-07T01:23:19.189Z,63.00
2022-08-07T01:24:21.397Z,64.31
2022-08-07T01:25:54.580Z,62.78
2022-08-07T01:26:19.553Z,62.75
2022-08-07T01:27:19.991Z,58.39
2022-08-07T01:28:18.107Z,62.16
2022-08-07T01:29:18.066Z,60.85
2022-08-07T01:30:19.026Z,61.37
2022-08-07T01:31:18.131Z,60.91
2022-08-07T01:32:18.037Z,63.82
2022-08-07T01:33:18.030Z,60.34
2022-08-07T01:34:18.906Z,58.30
2022-08-07T01:35:18.006Z,63.34
2022-08-07T01:36:18.994Z,62.11
2022-08-07T01:37:19.063Z,61.25
2022-08-07T01:38:25.394Z,59.64
2022-08-07T01:39:19.014Z,63.64
2022-08-07T01:40:17.959Z,59.16
2022-08-07T01:41:26.260Z,62.48
2022-08-07T01:42:38.917Z,63.37
2022-08-07T01:43:18.925Z,61.55
2022-08-07T01:44:17.948Z,60.05
2022-08-07T01:45:22.795Z,62.31
2022-08-07T01:46:18.904Z,63.38
2022-08-07T01:48:19.414Z,60.13
2022-08-07T01:48:29.379Z,59.69
2022-08-07T01:49:21.424Z,61.69
2022-08-07T01:50:22.708Z,63.28
2022-08-07T01:52:01.103Z,60.33
2022-08-07T01:52:18.842Z,61.13
2022-08-07T01:53:21.077Z,59.89
2022-08-07T01:54:37.058Z,55.32
2022-08-07T01:55:22.430Z,59.44
2022-08-07T01:56:18.804Z,62.94
2022-08-07T01:57:24.570Z,63.25
2022-08-07T01:58:29.132Z,60.50
2022-08-07T01:59:18.776Z,61.53
2022-08-07T02:00:17.804Z,62.44
2022-08-07T02:01:58.937Z,59.24
2022-08-07T02:02:32.856Z,60.38
2022-08-07T02:03:21.837Z,60.85
2022-08-07T02:04:18.793Z,60.72
2022-08-07T02:05:47.724Z,60.67
2022-08-07T02:06:30.855Z,60.71
2022-08-07T02:07:18.699Z,60.98
2022-08-07T02:08:17.691Z,64.51
2022-08-07T02:09:33.824Z,62.50
2022-08-07T02:10:18.668Z,60.42
2022-08-07T02:11:57.638Z,61.84
2022-08-07T02:12:18.650Z,61.17
2022-08-07T02:13:17.641Z,63.79
2022-08-07T02:14:36.325Z,62.51
2022-08-07T02:15:18.629Z,62.80
2022-08-07T02:16:17.611Z,64.72
2022-08-07T02:17:27.515Z,65.49
2022-08-07T02:18:18.612Z,61.77
2022-08-07T02:20:05.063Z,61.84
2022-08-07T02:20:23.371Z,61.94
2022-08-07T02:21:18.562Z,61.43
2022-08-07T02:22:18.577Z,61.07
2022-08-07T02:23:20.024Z,60.53
2022-08-07T02:24:18.537Z,65.15
2022-08-07T02:25:18.364Z,64.07
2022-08-07T02:26:33.002Z,57.64
2022-08-07T02:27:18.564Z,60.88
2022-08-07T02:28:24.710Z,64.99
2022-08-07T02:29:18.486Z,61.08
2022-08-07T02:30:17.476Z,59.81
2022-08-07T02:31:29.159Z,61.02
2022-08-07T02:32:18.459Z,59.99
2022-08-07T02:33:18.466Z,61.20
2022-08-07T02:34:18.066Z,64.41
2022-08-07T02:35:20.413Z,63.80
2022-08-07T02:36:29.500Z,59.50
2022-08-07T02:37:18.410Z,62.03
2022-08-07T02:38:17.413Z,62.18
2022-08-07T02:39:42.855Z,62.36
2022-08-07T02:40:30.871Z,63.01
2022-08-07T02:41:21.695Z,59.29
2022-08-07T02:42:17.361Z,61.87
2022-08-07T02:43:17.368Z,62.72
2022-08-07T02:44:17.342Z,65.31
2022-08-07T02:45:55.900Z,63.37
2022-08-07T02:46:18.325Z,62.17
2022-08-07T02:47:19.250Z,63.20
2022-08-07T02:48:18.342Z,60.03
2022-08-07T02:49:56.431Z,60.40
2022-08-07T02:50:18.428Z,59.93
2022-08-07T02:51:42.847Z,62.73
2022-08-07T02:52:18.266Z,61.86
2022-08-07T02:53:17.286Z,61.62
2022-08-07T02:54:17.251Z,61.51
2022-08-07T02:55:28.594Z,61.79
2022-08-07T02:56:21.890Z,63.07
2022-08-07T02:57:17.217Z,62.11
2022-08-07T02:58:17.208Z,65.35
2022-08-07T02:59:17.211Z,61.71
2022-08-07T03:00:18.310Z,63.73
2022-08-07T03:01:19.164Z,60.82
2022-08-07T03:02:18.248Z,62.59
2022-08-07T03:03:21.073Z,59.21
2022-08-07T03:04:18.162Z,62.56
2022-08-07T03:05:20.802Z,59.96
2022-08-07T03:06:29.640Z,63.44
2022-08-07T03:07:18.120Z,63.80
2022-08-07T03:08:17.110Z,62.62
2022-08-07T03:09:42.330Z,62.91
2022-08-07T03:10:18.089Z,61.06
2022-08-07T03:11:18.082Z,60.85
2022-08-07T03:12:22.345Z,62.61
2022-08-07T03:13:19.667Z,62.87
2022-08-07T03:14:17.097Z,59.25
2022-08-07T03:15:30.352Z,63.13
2022-08-07T03:16:18.032Z,64.02
2022-08-07T03:17:53.561Z,62.20
2022-08-07T03:18:20.194Z,64.20
2022-08-07T03:19:19.038Z,62.62
2022-08-07T03:20:16.990Z,64.44
2022-08-07T03:21:19.031Z,63.50
2022-08-07T03:22:19.023Z,63.02
2022-08-07T03:23:19.051Z,63.85
2022-08-07T03:24:17.805Z,63.06
2022-08-07T03:25:16.961Z,64.30
2022-08-07T03:26:21.208Z,61.57
2022-08-07T03:27:30.240Z,62.28
2022-08-07T03:28:37.143Z,62.00
2022-08-07T03:29:17.961Z,63.06
2022-08-07T03:30:16.894Z,62.24
2022-08-07T03:31:16.892Z,62.52
2022-08-07T03:32:16.867Z,60.17
2022-08-07T03:33:16.866Z,64.20
2022-08-07T03:34:18.892Z,64.61
2022-08-07T03:35:18.784Z,63.30
2022-08-07T03:36:17.871Z,59.55
2022-08-07T03:37:16.824Z,65.22
2022-08-07T03:38:16.813Z,63.94
2022-08-07T03:39:16.953Z,63.45
2022-08-07T03:40:17.230Z,61.95
2022-08-07T03:41:16.791Z,60.68
2022-08-07T03:42:16.782Z,62.42
2022-08-07T03:43:16.774Z,64.99
2022-08-07T03:44:16.764Z,64.17
2022-08-07T03:45:29.391Z,65.56
2022-08-07T03:46:18.617Z,65.05
2022-08-07T03:47:16.752Z,63.92
2022-08-07T03:48:16.728Z,63.26
2022-08-07T03:49:16.740Z,63.64
2022-08-07T03:50:16.753Z,64.40
2022-08-07T03:51:17.699Z,62.31
2022-08-07T03:52:22.707Z,62.18
2022-08-07T03:53:17.676Z,62.72
2022-08-07T03:54:36.485Z,62.71
2022-08-07T03:55:17.688Z,65.41
2022-08-07T03:56:16.653Z,63.35
2022-08-07T03:58:33.470Z,64.00
2022-08-07T03:59:07.358Z,65.36
2022-08-07T03:59:17.889Z,65.43
2022-08-07T04:00:16.609Z,62.05
2022-08-07T04:01:16.630Z,65.42
2022-08-07T04:02:16.587Z,65.88
2022-08-07T04:03:16.597Z,63.82
2022-08-07T04:04:17.394Z,62.98
2022-08-07T04:05:16.560Z,63.78
2022-08-07T04:06:37.186Z,62.92
2022-08-07T04:07:17.762Z,63.53
2022-08-07T04:08:18.713Z,63.57
2022-08-07T04:09:16.517Z,64.75
2022-08-07T04:10:19.484Z,62.18
2022-08-07T04:12:25.106Z,63.51
2022-08-07T04:12:26.215Z,64.02
2022-08-07T04:13:17.478Z,61.56
2022-08-07T04:14:37.706Z,61.93
2022-08-07T04:15:17.495Z,62.42
2022-08-07T04:16:30.057Z,63.09
2022-08-07T04:17:21.028Z,62.38
2022-08-07T04:18:58.500Z,63.66
2022-08-07T04:19:17.572Z,64.77
2022-08-07T04:20:16.411Z,63.99
2022-08-07T04:21:16.631Z,65.18
2022-08-07T04:22:17.675Z,63.43
2022-08-07T04:23:19.438Z,63.05
2022-08-07T04:24:30.347Z,62.32
2022-08-07T04:25:17.362Z,62.74
2022-08-07T04:26:16.923Z,65.25
2022-08-07T04:27:25.287Z,62.30
2022-08-07T04:28:17.337Z,65.03
2022-08-07T04:29:16.349Z,64.66
2022-08-07T04:30:35.831Z,64.95
2022-08-07T04:31:19.862Z,64.70
2022-08-07T04:32:16.346Z,62.20
2022-08-07T04:33:16.288Z,65.79
2022-08-07T04:34:17.206Z,66.61
2022-08-07T04:35:17.270Z,65.44
2022-08-07T04:36:16.259Z,65.31
2022-08-07T04:37:20.500Z,65.41
2022-08-07T04:38:16.258Z,65.24
2022-08-07T04:39:17.642Z,64.44
2022-08-07T04:40:16.237Z,63.23
2022-08-07T04:41:19.183Z,67.93
2022-08-07T04:42:16.213Z,63.58
2022-08-07T04:43:16.220Z,62.63
2022-08-07T04:44:18.799Z,64.81
2022-08-07T04:45:19.711Z,64.27
2022-08-07T04:46:25.845Z,64.17
2022-08-07T04:47:23.450Z,61.79
2022-08-07T04:48:17.409Z,64.86
2022-08-07T04:49:24.249Z,66.28
2022-08-07T04:50:17.128Z,62.93
2022-08-07T04:51:16.119Z,63.78
2022-08-07T04:52:18.433Z,64.46
2022-08-07T04:53:20.897Z,66.24
2022-08-07T04:54:17.097Z,64.79
2022-08-07T04:58:10.968Z,63.36
2022-08-07T04:58:11.763Z,64.93
2022-08-07T04:58:13.927Z,65.42
2022-08-07T04:58:33.688Z,64.72
2022-08-07T05:00:12.244Z,65.95
2022-08-07T05:00:30.221Z,65.08
2022-08-07T05:01:18.083Z,65.67
2022-08-07T05:02:16.802Z,65.65
2022-08-07T05:03:17.232Z,66.19
2022-08-07T05:04:18.001Z,63.46
2022-08-07T05:05:53.207Z,65.30
2022-08-07T05:06:19.586Z,65.71
2022-08-07T05:07:19.803Z,65.93
2022-08-07T05:08:15.944Z,63.71
2022-08-07T05:09:15.971Z,64.82
2022-08-07T05:10:15.929Z,65.79
2022-08-07T05:11:19.439Z,64.70
2022-08-07T05:12:26.830Z,63.64
2022-08-07T05:14:52.969Z,65.79
2022-08-07T05:14:53.681Z,64.30
2022-08-07T05:15:23.495Z,64.03
2022-08-07T05:16:17.869Z,64.60
2022-08-07T05:17:16.098Z,64.71
2022-08-07T05:18:16.852Z,62.85
2022-08-07T05:19:15.841Z,63.29
2022-08-07T05:20:15.875Z,62.64
2022-08-07T05:21:15.825Z,63.83
2022-08-07T05:22:26.593Z,62.99
2022-08-07T05:23:16.803Z,62.49
2022-08-07T05:24:15.794Z,61.80
2022-08-07T05:25:26.104Z,62.49
2022-08-07T05:26:23.716Z,60.74
2022-08-07T05:28:01.954Z,61.67
2022-08-07T05:28:22.558Z,61.54
2022-08-07T05:29:16.746Z,61.98
2022-08-07T05:30:15.736Z,62.15
2022-08-07T05:31:16.832Z,62.35
2022-08-07T05:32:15.717Z,63.70
2022-08-07T05:33:15.710Z,62.38
2022-08-07T05:34:15.915Z,61.23
2022-08-07T05:35:15.691Z,60.24
2022-08-07T05:36:22.594Z,64.03
2022-08-07T05:37:25.371Z,63.23
2022-08-07T05:39:00.769Z,62.57
2022-08-07T05:40:18.016Z,63.08
2022-08-07T05:40:18.594Z,62.93
2022-08-07T05:41:17.047Z,61.88
2022-08-07T05:42:15.649Z,63.37
2022-08-07T05:43:16.610Z,64.15
2022-08-07T05:44:15.607Z,62.79
2022-08-07T05:45:26.067Z,62.64
2022-08-07T05:46:16.606Z,62.54
2022-08-07T05:47:18.643Z,61.68
2022-08-07T05:48:15.559Z,60.94
2022-08-07T05:49:15.554Z,62.84
2022-08-07T05:50:15.540Z,62.50
2022-08-07T05:51:15.537Z,62.29
2022-08-07T05:52:15.587Z,63.41
2022-08-07T05:54:13.456Z,62.74
2022-08-07T05:54:44.555Z,62.20
2022-08-07T05:55:16.492Z,62.00
2022-08-07T05:56:15.486Z,62.81
2022-08-07T05:57:15.513Z,64.32
2022-08-07T05:58:15.468Z,63.44
2022-08-07T05:59:15.455Z,62.13
2022-08-07T06:00:16.317Z,62.49
2022-08-07T06:01:15.470Z,62.96
2022-08-07T06:02:20.084Z,62.26
2022-08-07T06:03:17.431Z,63.21
2022-08-07T06:04:17.472Z,63.57
2022-08-07T06:05:16.061Z,62.65
2022-08-07T06:06:17.315Z,62.15
2022-08-07T06:07:22.946Z,60.95
2022-08-07T06:08:30.786Z,62.77
2022-08-07T06:09:16.357Z,63.31
2022-08-07T06:10:15.677Z,61.70
2022-08-07T06:11:15.334Z,60.80
2022-08-07T06:12:15.504Z,64.14
2022-08-07T06:13:15.530Z,60.13
2022-08-07T06:14:21.383Z,63.15
2022-08-07T06:15:16.430Z,63.08
2022-08-07T06:16:15.291Z,64.84
2022-08-07T06:17:15.278Z,64.54
2022-08-07T06:18:15.274Z,61.76
2022-08-07T06:19:17.780Z,63.51
2022-08-07T06:20:25.560Z,63.68
2022-08-07T06:22:15.117Z,63.62
2022-08-07T06:22:24.019Z,63.63
2022-08-07T06:23:46.113Z,63.75
2022-08-07T06:24:46.123Z,64.11
2022-08-07T06:25:16.209Z,64.46
2022-08-07T06:26:15.195Z,64.20
2022-08-07T06:27:15.185Z,63.83
2022-08-07T06:28:16.172Z,64.75
2022-08-07T06:29:16.192Z,63.54
2022-08-07T06:30:32.145Z,64.55
2022-08-07T06:31:16.150Z,62.45
2022-08-07T06:32:15.135Z,64.27
2022-08-07T06:33:16.269Z,63.48
2022-08-07T06:34:15.114Z,66.55
2022-08-07T06:35:18.032Z,65.78
2022-08-07T06:36:15.096Z,63.34
2022-08-07T06:37:19.077Z,61.39
2022-08-07T06:38:20.023Z,64.26
2022-08-07T06:40:16.130Z,66.70
2022-08-07T06:40:20.892Z,64.37
2022-08-07T06:41:16.106Z,64.00
2022-08-07T06:42:16.038Z,65.22
2022-08-07T06:43:20.919Z,64.26
2022-08-07T06:44:16.326Z,63.12
2022-08-07T06:45:17.957Z,63.30
2022-08-07T06:46:14.998Z,64.21
2022-08-07T06:47:15.988Z,64.92
2022-08-07T06:48:15.233Z,63.17
2022-08-07T06:49:15.027Z,65.28
2022-08-07T06:50:14.959Z,64.98
2022-08-07T06:51:15.344Z,65.47
2022-08-07T06:52:14.940Z,63.94
2022-08-07T06:53:18.542Z,65.81
2022-08-07T06:55:32.303Z,65.52
2022-08-07T06:55:32.525Z,64.65
2022-08-07T06:56:16.034Z,62.63
2022-08-07T06:57:14.899Z,65.33
2022-08-07T06:58:16.613Z,64.73
2022-08-07T07:00:14.047Z,66.37
2022-08-07T07:00:18.260Z,62.90
2022-08-07T07:01:15.876Z,62.92
2022-08-07T07:02:14.902Z,64.80
2022-08-07T07:03:17.209Z,64.87
2022-08-07T07:04:28.080Z,65.51
2022-08-07T07:06:05.103Z,64.92
2022-08-07T07:06:23.742Z,63.66
2022-08-07T07:07:58.620Z,62.82
2022-08-07T07:08:18.648Z,64.52
2022-08-07T07:09:15.776Z,63.00
2022-08-07T07:10:14.768Z,64.09
2022-08-07T07:12:07.442Z,65.22
2022-08-07T07:12:21.748Z,65.89
2022-08-07T07:13:16.735Z,65.69
2022-08-07T07:14:15.725Z,64.38
2022-08-07T07:15:24.038Z,66.90
2022-08-07T07:16:19.529Z,65.99
2022-08-07T07:17:16.166Z,65.25
2022-08-07T07:18:14.689Z,64.17
2022-08-07T07:19:55.101Z,64.57
2022-08-07T07:20:15.690Z,67.76
2022-08-07T07:21:19.734Z,66.14
2022-08-07T07:22:37.000Z,66.62
2022-08-07T07:24:11.033Z,66.10
2022-08-07T07:24:15.630Z,67.43
2022-08-07T07:26:32.957Z,66.59
2022-08-07T07:26:34.177Z,64.02
2022-08-07T07:27:15.622Z,63.58
2022-08-07T07:28:42.624Z,63.97
2022-08-07T07:29:56.651Z,66.26
2022-08-07T07:30:32.383Z,65.41
2022-08-07T07:31:17.205Z,67.45
2022-08-07T07:32:15.588Z,66.21
2022-08-07T07:33:14.551Z,66.62
2022-08-07T07:34:15.508Z,64.05
2022-08-07T07:35:14.527Z,66.61
2022-08-07T07:36:17.195Z,67.45
2022-08-07T07:37:45.192Z,65.36
2022-08-07T07:38:15.502Z,66.34
2022-08-07T07:39:14.529Z,66.33
2022-08-07T07:40:15.337Z,67.20
2022-08-07T07:41:14.576Z,64.66
2022-08-07T07:42:17.536Z,66.73
2022-08-07T07:43:18.695Z,65.33
2022-08-07T07:44:21.452Z,64.56
2022-08-07T07:45:15.918Z,65.60
2022-08-07T07:46:37.035Z,63.72
2022-08-07T07:47:23.081Z,66.20
2022-08-07T07:48:35.101Z,66.05
2022-08-07T07:50:34.215Z,66.03
2022-08-07T07:50:34.444Z,65.41
2022-08-07T07:51:15.530Z,65.50
2022-08-07T07:52:15.913Z,64.20
2022-08-07T07:53:23.143Z,66.96
2022-08-07T07:54:15.342Z,64.48
2022-08-07T07:55:14.332Z,66.02
2022-08-07T07:56:14.322Z,64.16
2022-08-07T07:57:14.311Z,63.78
2022-08-07T07:58:14.335Z,64.91
2022-08-07T07:59:14.290Z,64.42
2022-08-07T08:00:21.195Z,64.52
2022-08-07T08:02:01.849Z,63.96
2022-08-07T08:02:22.591Z,64.71
2022-08-07T08:03:17.005Z,66.75
2022-08-07T08:04:15.289Z,64.49
2022-08-07T08:05:15.061Z,67.28
2022-08-07T08:06:14.221Z,65.43
2022-08-07T08:07:14.208Z,68.64
2022-08-07T08:08:33.989Z,65.82
2022-08-07T08:09:15.186Z,66.76
2022-08-07T08:10:14.817Z,65.14
2022-08-07T08:11:18.212Z,65.44
2022-08-07T08:12:31.177Z,66.30
2022-08-07T08:13:16.195Z,64.64
2022-08-07T08:14:14.139Z,63.68
2022-08-07T08:15:14.145Z,65.69
2022-08-07T08:16:14.119Z,64.54
2022-08-07T08:17:57.097Z,65.65
2022-08-07T08:18:17.814Z,63.49
2022-08-07T08:20:15.982Z,63.90
2022-08-07T08:20:17.523Z,65.11
2022-08-07T08:21:15.074Z,67.36
2022-08-07T08:22:14.067Z,65.16
2022-08-07T08:23:14.423Z,66.36
2022-08-07T08:24:36.580Z,64.11
2022-08-07T08:25:24.599Z,66.22
2022-08-07T08:26:15.028Z,66.84
2022-08-07T08:27:14.020Z,67.13
2022-08-07T08:28:16.947Z,67.52
2022-08-07T08:29:15.015Z,67.76
2022-08-07T08:30:14.398Z,66.20
2022-08-07T08:31:16.237Z,66.37
2022-08-07T08:32:18.436Z,65.86
2022-08-07T08:33:15.240Z,65.15
2022-08-07T08:34:19.046Z,65.54
2022-08-07T08:35:14.969Z,65.57
2022-08-07T08:36:13.933Z,65.31
2022-08-07T08:37:59.734Z,65.03
2022-08-07T08:38:14.950Z,66.58
2022-08-07T08:39:15.324Z,65.84
2022-08-07T08:40:16.326Z,66.63
2022-08-07T08:41:14.886Z,69.21
2022-08-07T08:42:13.878Z,67.27
2022-08-07T08:43:13.885Z,66.77
2022-08-07T08:44:13.896Z,66.22
2022-08-07T08:45:13.943Z,65.84
2022-08-07T08:46:13.840Z,65.71
2022-08-07T08:47:13.831Z,66.53
2022-08-07T08:48:13.819Z,66.86
2022-08-07T08:49:13.846Z,62.99
2022-08-07T08:50:17.547Z,63.22
2022-08-07T08:51:26.063Z,63.00
2022-08-07T08:52:16.656Z,65.10
2022-08-07T08:53:14.770Z,64.44
2022-08-07T08:54:13.765Z,64.01
2022-08-07T08:55:21.090Z,66.64
2022-08-07T08:56:16.849Z,67.16
2022-08-07T08:57:13.738Z,66.26
2022-08-07T08:58:20.271Z,66.62
2022-08-07T08:59:16.448Z,66.45
2022-08-07T09:00:13.720Z,65.11
2022-08-07T09:01:15.971Z,67.68
2022-08-07T09:02:14.750Z,66.06
2022-08-07T09:03:13.674Z,67.55
2022-08-07T09:04:13.676Z,68.06
2022-08-07T09:05:14.724Z,67.78
2022-08-07T09:06:13.648Z,68.96
2022-08-07T09:07:13.651Z,67.42
2022-08-07T09:08:17.836Z,67.01
2022-08-07T09:09:23.614Z,67.83
2022-08-07T09:10:14.657Z,67.52
2022-08-07T09:11:14.107Z,65.52
2022-08-07T09:12:30.326Z,65.57
2022-08-07T09:13:14.819Z,65.40
2022-08-07T09:14:13.569Z,65.52
2022-08-07T09:16:20.466Z,67.30
2022-08-07T09:16:21.901Z,67.37
2022-08-07T09:17:14.543Z,65.62
2022-08-07T09:18:15.725Z,66.79
2022-08-07T09:19:51.133Z,67.00
2022-08-07T09:20:35.703Z,67.78
2022-08-07T09:21:34.249Z,66.68
2022-08-07T09:24:28.944Z,66.60
2022-08-07T09:24:54.171Z,66.77
2022-08-07T09:24:54.721Z,66.81
2022-08-07T09:25:17.427Z,64.97
2022-08-07T09:26:13.479Z,66.52
2022-08-07T09:27:13.669Z,65.45
2022-08-07T09:30:04.032Z,67.41
2022-08-07T09:30:05.169Z,67.13
2022-08-07T09:30:14.421Z,65.78
2022-08-07T09:31:15.468Z,65.64
2022-08-07T09:32:17.305Z,65.43
2022-08-07T09:33:24.160Z,65.98
2022-08-07T09:34:14.376Z,66.87
2022-08-07T09:36:04.017Z,66.89
2022-08-07T09:36:14.374Z,67.27
2022-08-07T09:37:13.341Z,65.87
2022-08-07T09:38:13.335Z,66.61
2022-08-07T09:39:27.501Z,66.17
2022-08-07T09:40:14.393Z,68.67
2022-08-07T09:41:13.320Z,65.59
2022-08-07T09:42:17.180Z,64.96
2022-08-07T09:43:14.584Z,65.25
2022-08-07T09:44:29.998Z,63.95
2022-08-07T09:47:50.261Z,65.35
2022-08-07T09:47:52.543Z,63.19
2022-08-07T09:47:55.246Z,64.43
2022-08-07T09:48:14.550Z,63.57
2022-08-07T09:50:01.017Z,65.22
2022-08-07T09:50:18.460Z,62.96
2022-08-07T09:51:14.782Z,64.36
2022-08-07T09:52:33.470Z,66.07
2022-08-07T09:53:14.183Z,65.72
2022-08-07T09:54:16.406Z,67.34
2022-08-07T09:55:17.350Z,64.53
2022-08-07T09:56:14.193Z,65.76
2022-08-07T09:57:14.154Z,63.16
2022-08-07T09:58:13.360Z,62.99
2022-08-07T09:59:14.511Z,65.35
2022-08-07T10:00:14.619Z,65.27
2022-08-07T10:01:14.878Z,66.19
2022-08-07T10:02:14.111Z,66.28
2022-08-07T10:04:05.879Z,64.14
2022-08-07T10:04:15.880Z,67.77
2022-08-07T10:05:13.882Z,68.41
2022-08-07T10:06:17.573Z,67.44
2022-08-07T10:07:24.590Z,65.89
2022-08-07T10:08:14.041Z,65.76
2022-08-07T10:09:15.223Z,64.26
2022-08-07T10:10:21.938Z,64.02
2022-08-07T10:11:59.831Z,64.82
2022-08-07T10:12:21.556Z,62.36
2022-08-07T10:13:15.919Z,63.18
2022-08-07T10:14:13.987Z,63.78
2022-08-07T10:15:15.284Z,63.86
2022-08-07T10:16:12.960Z,64.40
2022-08-07T10:17:14.448Z,65.10
2022-08-07T10:18:13.956Z,64.20
2022-08-07T10:19:45.495Z,67.57
2022-08-07T10:20:13.218Z,64.86
2022-08-07T10:21:19.720Z,65.52
2022-08-07T10:22:16.925Z,64.48
2022-08-07T10:23:12.897Z,67.75
2022-08-07T10:24:17.102Z,66.09
2022-08-07T10:25:13.875Z,66.20
2022-08-07T10:26:12.868Z,67.74
2022-08-07T10:27:12.898Z,67.09
2022-08-07T10:28:12.849Z,66.96
2022-08-07T10:29:12.840Z,65.83
2022-08-07T10:30:13.043Z,66.72
2022-08-07T10:31:12.815Z,67.44
2022-08-07T10:32:16.494Z,67.16
2022-08-07T10:33:15.087Z,67.51
2022-08-07T10:34:15.266Z,67.49
2022-08-07T10:35:14.903Z,67.66
2022-08-07T10:36:12.790Z,68.00
2022-08-07T10:37:12.889Z,67.49
2022-08-07T10:38:35.261Z,68.14
2022-08-07T10:39:13.760Z,67.39
2022-08-07T10:40:12.818Z,67.01
2022-08-07T10:41:12.722Z,65.77
2022-08-07T10:42:21.030Z,65.41
2022-08-07T10:43:13.712Z,67.41
2022-08-07T10:44:13.689Z,65.84
2022-08-07T10:45:12.730Z,65.69
2022-08-07T10:46:12.668Z,66.06
2022-08-07T10:47:14.253Z,63.78
2022-08-07T10:48:12.665Z,65.05
2022-08-07T10:49:12.639Z,65.12
2022-08-07T10:50:12.727Z,64.18
2022-08-07T10:51:16.793Z,63.48
2022-08-07T10:52:14.082Z,64.06
2022-08-07T10:53:12.619Z,64.48
2022-08-07T10:54:13.594Z,64.13
2022-08-07T10:55:26.961Z,66.42
2022-08-07T10:56:20.842Z,65.81
2022-08-07T10:57:13.567Z,66.12
2022-08-07T10:58:12.613Z,65.23
2022-08-07T10:59:13.631Z,64.84
2022-08-07T11:00:39.593Z,66.23
2022-08-07T11:01:15.048Z,65.39
2022-08-07T11:02:32.812Z,64.69
2022-08-07T11:03:13.640Z,63.69
2022-08-07T11:04:31.336Z,63.56
2022-08-07T11:05:14.495Z,65.54
2022-08-07T11:06:18.202Z,64.16
2022-08-07T11:07:14.953Z,61.39
2022-08-07T11:08:13.604Z,62.84
2022-08-07T11:09:12.460Z,63.08
2022-08-07T11:10:13.555Z,63.35
2022-08-07T11:11:12.440Z,63.70
2022-08-07T11:12:12.428Z,63.88
2022-08-07T11:13:16.797Z,66.18
2022-08-07T11:14:43.717Z,67.24
2022-08-07T11:15:17.499Z,68.77
2022-08-07T11:16:13.395Z,68.64
2022-08-07T11:17:13.386Z,68.38
2022-08-07T11:18:13.404Z,68.39
2022-08-07T11:19:12.362Z,67.58
2022-08-07T11:20:12.361Z,64.57
2022-08-07T11:21:12.346Z,64.61
2022-08-07T11:22:26.678Z,65.89
2022-08-07T11:23:13.329Z,64.69
2022-08-07T11:24:13.339Z,64.15
2022-08-07T11:25:12.313Z,65.53
2022-08-07T11:26:13.111Z,65.83
2022-08-07T11:27:13.522Z,63.80
2022-08-07T11:28:15.608Z,63.69
2022-08-07T11:29:13.195Z,65.39
2022-08-07T11:30:18.269Z,63.36
2022-08-07T11:31:13.275Z,66.13
2022-08-07T11:32:12.249Z,67.46
2022-08-07T11:33:14.139Z,66.19
2022-08-07T11:34:12.275Z,65.88
2022-08-07T11:35:12.230Z,67.02
2022-08-07T11:36:12.213Z,65.33
2022-08-07T11:37:12.206Z,65.03
2022-08-07T11:38:17.208Z,67.37
2022-08-07T11:39:14.527Z,66.14
2022-08-07T11:40:12.217Z,65.60
2022-08-07T11:41:18.298Z,64.63
2022-08-07T11:42:18.803Z,64.58
2022-08-07T11:43:15.505Z,64.48
2022-08-07T11:44:14.304Z,62.90
2022-08-07T11:45:13.130Z,61.99
2022-08-07T11:46:12.137Z,64.04
2022-08-07T11:47:12.136Z,61.56
2022-08-07T11:48:18.068Z,64.62
2022-08-07T11:49:50.750Z,65.03
2022-08-07T11:50:32.225Z,64.64
2022-08-07T11:51:44.476Z,65.84
2022-08-07T11:52:13.064Z,64.96
2022-08-07T11:53:12.051Z,62.81
2022-08-07T11:54:12.082Z,62.06
2022-08-07T11:55:18.698Z,61.90
2022-08-07T11:56:27.102Z,61.52
2022-08-07T11:57:14.272Z,61.47
2022-08-07T11:58:13.233Z,62.60
2022-08-07T12:00:07.623Z,64.04
2022-08-07T12:00:18.989Z,65.35
2022-08-07T12:01:13.975Z,63.79
2022-08-07T12:02:20.916Z,65.07
2022-08-07T12:03:45.406Z,63.28
2022-08-07T12:04:12.969Z,63.02
2022-08-07T12:05:15.425Z,61.88
2022-08-07T12:06:37.878Z,62.60
2022-08-07T12:07:22.071Z,62.23
2022-08-07T12:08:25.984Z,61.18
2022-08-07T12:09:16.219Z,62.95
2022-08-07T12:10:12.911Z,61.27
2022-08-07T12:11:21.488Z,61.38
2022-08-07T12:12:12.877Z,62.25
2022-08-07T12:13:17.009Z,61.28
2022-08-07T12:14:12.854Z,60.79
2022-08-07T12:15:35.412Z,61.37
2022-08-07T12:16:12.837Z,62.72
2022-08-07T12:17:19.988Z,61.73
2022-08-07T12:18:12.889Z,62.52
2022-08-07T12:19:11.810Z,62.61
2022-08-07T12:20:30.380Z,64.34
2022-08-07T12:21:14.979Z,66.16
2022-08-07T12:22:38.590Z,65.79
2022-08-07T12:23:14.428Z,65.56
2022-08-07T12:24:37.012Z,67.43
2022-08-07T12:26:00.399Z,65.38
2022-08-07T12:26:29.012Z,66.28
2022-08-07T12:27:14.982Z,67.10
2022-08-07T12:28:11.934Z,65.61
2022-08-07T12:29:11.717Z,65.79
2022-08-07T12:30:11.830Z,65.56
2022-08-07T12:31:11.700Z,63.88
2022-08-07T12:32:13.168Z,63.98
2022-08-07T12:33:23.158Z,63.62
2022-08-07T12:34:12.672Z,62.63
2022-08-07T12:35:11.936Z,62.55
2022-08-07T12:36:11.646Z,65.70
2022-08-07T12:37:22.902Z,66.30
2022-08-07T12:38:29.285Z,66.65
2022-08-07T12:39:44.009Z,65.87
2022-08-07T12:40:36.401Z,65.48
2022-08-07T12:41:13.816Z,63.10
2022-08-07T12:42:13.081Z,64.72
2022-08-07T12:43:11.586Z,65.91
2022-08-07T12:44:17.063Z,64.85
2022-08-07T12:45:13.852Z,63.50
2022-08-07T12:46:11.557Z,64.64
2022-08-07T12:47:11.547Z,63.23
2022-08-07T12:48:28.011Z,62.36
2022-08-07T12:49:25.748Z,65.11
2022-08-07T12:50:39.147Z,64.77
2022-08-07T12:51:17.570Z,65.19
2022-08-07T12:52:13.631Z,65.96